sensor_id;sensor_type;location;lat;lon;timestamp;pressure;altitude;pressure_sealevel;temperature;humidity
78932;BME280;68331;53.362;55.932;2023-08-20T00:01:48;100153.09;;;17.04;74.10
78932;BME280;68331;53.362;55.932;2023-08-20T00:04:16;100159.47;;;17.01;74.14
78932;BME280;68331;53.362;55.932;2023-08-20T00:06:42;100158.16;;;16.92;74.19
78932;BME280;68331;53.362;55.932;2023-08-20T00:09:09;100159.44;;;16.85;74.26
78932;BME280;68331;53.362;55.932;2023-08-20T00:11:36;100160.75;;;16.77;74.33
78932;BME280;68331;53.362;55.932;2023-08-20T00:14:03;100156.69;;;16.69;74.80
78932;BME280;68331;53.362;55.932;2023-08-20T00:16:29;100150.81;;;16.63;74.83
78932;BME280;68331;53.362;55.932;2023-08-20T00:18:55;100150.97;;;16.60;75.03
78932;BME280;68331;53.362;55.932;2023-08-20T00:21:21;100149.38;;;16.56;75.23
78932;BME280;68331;53.362;55.932;2023-08-20T00:23:48;100135.94;;;16.41;75.02
78932;BME280;68331;53.362;55.932;2023-08-20T00:26:15;100151.75;;;16.44;75.39
78932;BME280;68331;53.362;55.932;2023-08-20T00:28:41;100154.72;;;16.38;75.56
78932;BME280;68331;53.362;55.932;2023-08-20T00:31:07;100159.25;;;16.36;75.31
78932;BME280;68331;53.362;55.932;2023-08-20T00:33:33;100154.78;;;16.37;75.27
78932;BME280;68331;53.362;55.932;2023-08-20T00:35:59;100157.53;;;16.35;75.07
78932;BME280;68331;53.362;55.932;2023-08-20T00:38:25;100153.16;;;16.34;75.24
78932;BME280;68331;53.362;55.932;2023-08-20T00:40:51;100158.09;;;16.42;75.00
78932;BME280;68331;53.362;55.932;2023-08-20T00:43:17;100161.38;;;16.47;74.63
78932;BME280;68331;53.362;55.932;2023-08-20T00:45:43;100164.22;;;16.44;74.55
78932;BME280;68331;53.362;55.932;2023-08-20T00:48:10;100170.53;;;16.41;74.10
78932;BME280;68331;53.362;55.932;2023-08-20T00:50:38;100165.44;;;16.37;74.41
78932;BME280;68331;53.362;55.932;2023-08-20T00:53:05;100168.28;;;16.34;74.46
78932;BME280;68331;53.362;55.932;2023-08-20T00:55:31;100171.25;;;16.27;74.48
78932;BME280;68331;53.362;55.932;2023-08-20T00:57:58;100169.75;;;16.22;74.63
78932;BME280;68331;53.362;55.932;2023-08-20T01:00:24;100162.88;;;16.18;74.61
78932;BME280;68331;53.362;55.932;2023-08-20T01:02:50;100168.34;;;16.15;74.78
78932;BME280;68331;53.362;55.932;2023-08-20T01:05:17;100164.19;;;16.09;75.10
78932;BME280;68331;53.362;55.932;2023-08-20T01:08:04;100173.09;;;16.08;74.74
78932;BME280;68331;53.362;55.932;2023-08-20T01:11:17;100172.22;;;16.08;74.77
78932;BME280;68331;53.362;55.932;2023-08-20T01:13:23;100176.78;;;16.06;74.69
78932;BME280;68331;53.362;55.932;2023-08-20T01:15:49;100178.50;;;16.07;74.64
78932;BME280;68331;53.362;55.932;2023-08-20T01:18:15;100173.16;;;16.07;74.55
78932;BME280;68331;53.362;55.932;2023-08-20T01:20:50;100167.13;;;16.03;74.59
78932;BME280;68331;53.362;55.932;2023-08-20T01:28:51;100172.59;;;16.00;74.70
78932;BME280;68331;53.362;55.932;2023-08-20T01:31:18;100180.66;;;15.98;74.76
78932;BME280;68331;53.362;55.932;2023-08-20T01:33:45;100168.69;;;15.90;74.64
78932;BME280;68331;53.362;55.932;2023-08-20T01:36:11;100170.25;;;15.94;74.69
78932;BME280;68331;53.362;55.932;2023-08-20T01:38:40;100172.59;;;16.00;74.57
78932;BME280;68331;53.362;55.932;2023-08-20T01:41:06;100181.31;;;16.03;74.37
78932;BME280;68331;53.362;55.932;2023-08-20T01:43:32;100178.63;;;16.03;74.11
78932;BME280;68331;53.362;55.932;2023-08-20T01:45:59;100176.44;;;15.94;74.39
78932;BME280;68331;53.362;55.932;2023-08-20T01:48:25;100173.19;;;15.88;74.39
78932;BME280;68331;53.362;55.932;2023-08-20T01:50:51;100175.00;;;15.87;74.63
78932;BME280;68331;53.362;55.932;2023-08-20T01:53:17;100184.66;;;15.90;74.72
78932;BME280;68331;53.362;55.932;2023-08-20T01:55:43;100187.00;;;15.96;74.73
78932;BME280;68331;53.362;55.932;2023-08-20T01:58:09;100189.28;;;16.03;74.66
78932;BME280;68331;53.362;55.932;2023-08-20T02:00:35;100181.81;;;16.12;74.39
78932;BME280;68331;53.362;55.932;2023-08-20T02:03:01;100180.59;;;16.17;74.32
78932;BME280;68331;53.362;55.932;2023-08-20T02:05:28;100176.88;;;16.21;73.87
78932;BME280;68331;53.362;55.932;2023-08-20T02:07:54;100187.94;;;16.31;73.70
78932;BME280;68331;53.362;55.932;2023-08-20T02:10:20;100195.69;;;16.36;73.41
78932;BME280;68331;53.362;55.932;2023-08-20T02:12:47;100189.34;;;16.38;73.48
78932;BME280;68331;53.362;55.932;2023-08-20T02:15:13;100199.69;;;16.44;73.14
78932;BME280;68331;53.362;55.932;2023-08-20T02:17:39;100190.59;;;16.48;72.81
78932;BME280;68331;53.362;55.932;2023-08-20T02:20:05;100206.06;;;16.59;72.42
78932;BME280;68331;53.362;55.932;2023-08-20T02:22:33;100210.13;;;16.66;71.87
78932;BME280;68331;53.362;55.932;2023-08-20T02:25:00;100210.19;;;16.65;71.64
78932;BME280;68331;53.362;55.932;2023-08-20T02:27:26;100207.44;;;16.66;71.51
78932;BME280;68331;53.362;55.932;2023-08-20T02:29:52;100212.38;;;16.74;71.00
78932;BME280;68331;53.362;55.932;2023-08-20T02:32:19;100209.44;;;16.80;70.95
78932;BME280;68331;53.362;55.932;2023-08-20T02:34:49;100208.63;;;16.78;70.73
78932;BME280;68331;53.362;55.932;2023-08-20T02:37:16;100210.53;;;16.76;70.58
78932;BME280;68331;53.362;55.932;2023-08-20T02:39:42;100209.44;;;16.80;70.67
78932;BME280;68331;53.362;55.932;2023-08-20T02:42:08;100209.97;;;16.87;70.41
78932;BME280;68331;53.362;55.932;2023-08-20T02:44:34;100213.34;;;16.90;69.96
78932;BME280;68331;53.362;55.932;2023-08-20T02:47:00;100202.84;;;16.87;70.08
78932;BME280;68331;53.362;55.932;2023-08-20T02:49:26;100208.09;;;16.89;69.99
78932;BME280;68331;53.362;55.932;2023-08-20T02:51:52;100205.28;;;16.92;69.91
78932;BME280;68331;53.362;55.932;2023-08-20T02:54:18;100208.78;;;16.92;69.81
78932;BME280;68331;53.362;55.932;2023-08-20T02:56:44;100202.34;;;16.96;69.50
78932;BME280;68331;53.362;55.932;2023-08-20T02:59:10;100213.00;;;16.96;69.52
78932;BME280;68331;53.362;55.932;2023-08-20T03:01:37;100205.66;;;17.02;69.04
78932;BME280;68331;53.362;55.932;2023-08-20T03:04:03;100203.59;;;17.07;68.86
78932;BME280;68331;53.362;55.932;2023-08-20T03:06:30;100197.56;;;17.03;68.92
78932;BME280;68331;53.362;55.932;2023-08-20T03:08:56;100205.50;;;17.05;68.85
78932;BME280;68331;53.362;55.932;2023-08-20T03:11:23;100198.09;;;17.10;68.45
78932;BME280;68331;53.362;55.932;2023-08-20T03:13:49;100201.53;;;17.12;68.27
78932;BME280;68331;53.362;55.932;2023-08-20T03:16:15;100205.06;;;17.12;68.35
78932;BME280;68331;53.362;55.932;2023-08-20T03:18:41;100194.50;;;17.11;68.32
78932;BME280;68331;53.362;55.932;2023-08-20T03:21:07;100197.69;;;17.17;68.15
78932;BME280;68331;53.362;55.932;2023-08-20T03:23:33;100194.72;;;17.24;67.87
78932;BME280;68331;53.362;55.932;2023-08-20T03:25:59;100196.94;;;17.31;67.73
78932;BME280;68331;53.362;55.932;2023-08-20T03:28:25;100196.44;;;17.40;67.47
78932;BME280;68331;53.362;55.932;2023-08-20T03:30:53;100197.50;;;17.54;67.59
78932;BME280;68331;53.362;55.932;2023-08-20T03:33:22;100195.53;;;17.57;67.29
78932;BME280;68331;53.362;55.932;2023-08-20T03:35:48;100194.59;;;17.58;66.93
78932;BME280;68331;53.362;55.932;2023-08-20T03:38:14;100201.38;;;17.64;66.69
78932;BME280;68331;53.362;55.932;2023-08-20T03:40:40;100199.03;;;17.91;66.22
78932;BME280;68331;53.362;55.932;2023-08-20T03:43:06;100198.72;;;18.57;64.38
78932;BME280;68331;53.362;55.932;2023-08-20T03:45:32;100193.41;;;19.02;62.79
78932;BME280;68331;53.362;55.932;2023-08-20T03:47:58;100190.94;;;19.27;61.85
78932;BME280;68331;53.362;55.932;2023-08-20T03:50:25;100201.03;;;19.37;61.38
78932;BME280;68331;53.362;55.932;2023-08-20T03:52:51;100196.66;;;19.07;62.04
78932;BME280;68331;53.362;55.932;2023-08-20T03:55:17;100195.16;;;18.73;63.12
78932;BME280;68331;53.362;55.932;2023-08-20T03:57:43;100196.50;;;18.50;63.98
78932;BME280;68331;53.362;55.932;2023-08-20T04:00:10;100201.81;;;18.35;64.86
78932;BME280;68331;53.362;55.932;2023-08-20T04:02:45;100200.28;;;18.31;65.07
78932;BME280;68331;53.362;55.932;2023-08-20T04:05:12;100199.13;;;18.35;65.00
78932;BME280;68331;53.362;55.932;2023-08-20T04:07:38;100193.31;;;18.43;64.93
78932;BME280;68331;53.362;55.932;2023-08-20T04:10:05;100193.81;;;18.50;64.51
78932;BME280;68331;53.362;55.932;2023-08-20T04:12:35;100199.78;;;18.69;64.19
78932;BME280;68331;53.362;55.932;2023-08-20T04:15:01;100190.91;;;19.70;61.13
78932;BME280;68331;53.362;55.932;2023-08-20T04:17:31;100191.47;;;20.17;59.23
78932;BME280;68331;53.362;55.932;2023-08-20T04:19:57;100197.56;;;19.92;59.71
78932;BME280;68331;53.362;55.932;2023-08-20T04:22:23;100200.47;;;19.74;60.12
78932;BME280;68331;53.362;55.932;2023-08-20T04:24:49;100202.59;;;19.69;60.45
78932;BME280;68331;53.362;55.932;2023-08-20T04:27:15;100199.16;;;19.53;61.20
78932;BME280;68331;53.362;55.932;2023-08-20T04:29:43;100200.97;;;19.38;61.78
78932;BME280;68331;53.362;55.932;2023-08-20T04:32:09;100203.91;;;19.19;62.57
78932;BME280;68331;53.362;55.932;2023-08-20T04:34:35;100209.09;;;19.08;63.21
78932;BME280;68331;53.362;55.932;2023-08-20T04:37:01;100207.81;;;18.99;63.52
78932;BME280;68331;53.362;55.932;2023-08-20T04:39:27;100209.53;;;19.00;63.37
78932;BME280;68331;53.362;55.932;2023-08-20T04:41:53;100207.94;;;19.12;63.73
78932;BME280;68331;53.362;55.932;2023-08-20T04:44:23;100209.06;;;19.22;63.04
78932;BME280;68331;53.362;55.932;2023-08-20T04:46:53;100209.06;;;19.37;62.45
78932;BME280;68331;53.362;55.932;2023-08-20T04:49:19;100212.81;;;19.48;62.05
78932;BME280;68331;53.362;55.932;2023-08-20T04:51:45;100204.50;;;19.53;62.08
78932;BME280;68331;53.362;55.932;2023-08-20T04:54:11;100201.44;;;19.59;62.11
78932;BME280;68331;53.362;55.932;2023-08-20T04:56:36;100203.53;;;19.68;61.69
78932;BME280;68331;53.362;55.932;2023-08-20T04:59:03;100193.91;;;19.66;61.75
78932;BME280;68331;53.362;55.932;2023-08-20T05:01:48;100186.13;;;19.76;61.67
78932;BME280;68331;53.362;55.932;2023-08-20T05:04:16;100202.28;;;19.88;61.28
78932;BME280;68331;53.362;55.932;2023-08-20T05:06:42;100204.56;;;19.94;61.36
78932;BME280;68331;53.362;55.932;2023-08-20T05:09:08;100194.38;;;20.00;60.86
78932;BME280;68331;53.362;55.932;2023-08-20T05:11:35;100194.09;;;20.04;60.76
78932;BME280;68331;53.362;55.932;2023-08-20T05:14:01;100187.81;;;20.18;60.35
78932;BME280;68331;53.362;55.932;2023-08-20T05:16:27;100192.78;;;20.24;60.16
78932;BME280;68331;53.362;55.932;2023-08-20T05:18:53;100186.00;;;20.18;60.20
78932;BME280;68331;53.362;55.932;2023-08-20T05:21:19;100190.34;;;20.86;58.76
78932;BME280;68331;53.362;55.932;2023-08-20T05:23:46;100189.66;;;22.33;54.46
78932;BME280;68331;53.362;55.932;2023-08-20T05:26:12;100182.13;;;22.38;53.91
78932;BME280;68331;53.362;55.932;2023-08-20T05:28:39;100186.56;;;22.02;55.23
78932;BME280;68331;53.362;55.932;2023-08-20T05:31:05;100179.25;;;21.68;56.02
78932;BME280;68331;53.362;55.932;2023-08-20T05:33:31;100168.03;;;21.50;56.51
78932;BME280;68331;53.362;55.932;2023-08-20T05:35:59;100173.53;;;21.35;57.09
78932;BME280;68331;53.362;55.932;2023-08-20T05:38:26;100172.66;;;21.22;56.95
78932;BME280;68331;53.362;55.932;2023-08-20T05:40:52;100170.72;;;21.24;57.02
78932;BME280;68331;53.362;55.932;2023-08-20T05:43:18;100164.19;;;21.78;56.10
78932;BME280;68331;53.362;55.932;2023-08-20T05:45:45;100168.84;;;22.00;55.46
78932;BME280;68331;53.362;55.932;2023-08-20T05:48:16;100164.91;;;21.93;55.23
78932;BME280;68331;53.362;55.932;2023-08-20T05:50:42;100171.31;;;22.03;54.75
78932;BME280;68331;53.362;55.932;2023-08-20T05:53:08;100167.97;;;21.99;54.56
78932;BME280;68331;53.362;55.932;2023-08-20T05:55:34;100159.53;;;22.17;53.91
78932;BME280;68331;53.362;55.932;2023-08-20T05:58:00;100168.03;;;22.70;53.13
78932;BME280;68331;53.362;55.932;2023-08-20T06:00:27;100150.41;;;25.38;46.77
78932;BME280;68331;53.362;55.932;2023-08-20T06:02:53;100151.19;;;29.05;38.81
78932;BME280;68331;53.362;55.932;2023-08-20T06:05:19;100150.25;;;31.69;33.67
78932;BME280;68331;53.362;55.932;2023-08-20T06:07:46;100143.06;;;32.53;31.74
78932;BME280;68331;53.362;55.932;2023-08-20T06:10:12;100137.38;;;34.18;28.85
78932;BME280;68331;53.362;55.932;2023-08-20T06:12:38;100134.78;;;35.44;26.50
78932;BME280;68331;53.362;55.932;2023-08-20T06:15:05;100132.75;;;36.33;25.77
78932;BME280;68331;53.362;55.932;2023-08-20T06:17:33;100129.97;;;37.91;23.08
78932;BME280;68331;53.362;55.932;2023-08-20T06:19:59;100137.38;;;40.08;21.03
78932;BME280;68331;53.362;55.932;2023-08-20T06:22:25;100128.88;;;41.74;19.10
78932;BME280;68331;53.362;55.932;2023-08-20T06:24:51;100123.16;;;42.89;17.88
78932;BME280;68331;53.362;55.932;2023-08-20T06:27:18;100126.97;;;43.44;16.61
78932;BME280;68331;53.362;55.932;2023-08-20T06:29:44;100124.75;;;44.17;16.00
78932;BME280;68331;53.362;55.932;2023-08-20T06:32:10;100129.06;;;44.29;16.11
78932;BME280;68331;53.362;55.932;2023-08-20T06:34:36;100131.75;;;44.51;15.52
78932;BME280;68331;53.362;55.932;2023-08-20T06:37:03;100117.03;;;44.93;14.62
78932;BME280;68331;53.362;55.932;2023-08-20T06:39:29;100110.97;;;45.54;14.29
78932;BME280;68331;53.362;55.932;2023-08-20T06:41:56;100110.03;;;45.38;14.85
78932;BME280;68331;53.362;55.932;2023-08-20T06:44:24;100111.09;;;44.79;14.40
78932;BME280;68331;53.362;55.932;2023-08-20T06:46:50;100104.22;;;44.92;14.90
78932;BME280;68331;53.362;55.932;2023-08-20T06:49:16;100108.44;;;45.00;14.57
78932;BME280;68331;53.362;55.932;2023-08-20T06:51:42;100114.50;;;44.22;15.02
78932;BME280;68331;53.362;55.932;2023-08-20T06:54:08;100112.00;;;44.21;14.77
78932;BME280;68331;53.362;55.932;2023-08-20T06:56:34;100106.19;;;43.95;14.93
78932;BME280;68331;53.362;55.932;2023-08-20T06:59:00;100100.13;;;43.76;15.46
78932;BME280;68331;53.362;55.932;2023-08-20T07:01:27;100101.25;;;43.75;14.84
78932;BME280;68331;53.362;55.932;2023-08-20T07:03:53;100097.13;;;43.12;15.61
78932;BME280;68331;53.362;55.932;2023-08-20T07:06:19;100104.06;;;42.76;16.21
78932;BME280;68331;53.362;55.932;2023-08-20T07:08:45;100098.88;;;41.19;17.18
78932;BME280;68331;53.362;55.932;2023-08-20T07:11:12;100103.22;;;38.99;19.42
78932;BME280;68331;53.362;55.932;2023-08-20T07:13:38;100095.75;;;36.96;20.72
78932;BME280;68331;53.362;55.932;2023-08-20T07:16:04;100098.91;;;35.04;23.86
78932;BME280;68331;53.362;55.932;2023-08-20T07:18:31;100081.50;;;33.25;25.87
78932;BME280;68331;53.362;55.932;2023-08-20T07:20:57;100084.63;;;31.93;28.29
78932;BME280;68331;53.362;55.932;2023-08-20T07:23:23;100082.19;;;30.72;29.84
78932;BME280;68331;53.362;55.932;2023-08-20T07:25:49;100074.22;;;29.38;31.68
78932;BME280;68331;53.362;55.932;2023-08-20T07:28:18;100078.38;;;28.38;33.39
78932;BME280;68331;53.362;55.932;2023-08-20T07:30:52;100072.06;;;27.66;34.09
78932;BME280;68331;53.362;55.932;2023-08-20T07:33:18;100069.47;;;27.29;35.34
78932;BME280;68331;53.362;55.932;2023-08-20T07:35:45;100074.28;;;26.98;35.49
78932;BME280;68331;53.362;55.932;2023-08-20T07:38:11;100063.41;;;26.70;35.65
78932;BME280;68331;53.362;55.932;2023-08-20T07:40:37;100072.97;;;26.74;35.94
78932;BME280;68331;53.362;55.932;2023-08-20T07:43:03;100063.72;;;26.57;36.24
78932;BME280;68331;53.362;55.932;2023-08-20T07:45:29;100064.03;;;26.35;36.56
78932;BME280;68331;53.362;55.932;2023-08-20T07:47:55;100060.63;;;26.42;37.36
78932;BME280;68331;53.362;55.932;2023-08-20T07:50:21;100066.59;;;26.56;36.58
78932;BME280;68331;53.362;55.932;2023-08-20T07:52:47;100054.63;;;26.58;36.13
78932;BME280;68331;53.362;55.932;2023-08-20T07:55:13;100062.31;;;26.43;36.27
78932;BME280;68331;53.362;55.932;2023-08-20T07:57:39;100047.13;;;26.23;36.68
78932;BME280;68331;53.362;55.932;2023-08-20T08:00:06;100042.69;;;26.22;36.09
78932;BME280;68331;53.362;55.932;2023-08-20T08:02:37;100055.63;;;26.38;35.59
78932;BME280;68331;53.362;55.932;2023-08-20T08:05:04;100050.66;;;26.33;35.16
78932;BME280;68331;53.362;55.932;2023-08-20T08:07:30;100054.06;;;26.35;35.78
78932;BME280;68331;53.362;55.932;2023-08-20T08:09:56;100062.34;;;26.34;35.58
78932;BME280;68331;53.362;55.932;2023-08-20T08:12:22;100055.91;;;26.35;35.63
78932;BME280;68331;53.362;55.932;2023-08-20T08:14:48;100036.44;;;26.21;35.68
78932;BME280;68331;53.362;55.932;2023-08-20T08:17:14;100039.88;;;26.04;34.99
78932;BME280;68331;53.362;55.932;2023-08-20T08:19:40;100047.00;;;26.05;35.15
78932;BME280;68331;53.362;55.932;2023-08-20T08:22:06;100051.53;;;26.14;34.88
78932;BME280;68331;53.362;55.932;2023-08-20T08:24:32;100044.00;;;26.08;34.91
78932;BME280;68331;53.362;55.932;2023-08-20T08:26:58;100054.81;;;26.18;35.13
78932;BME280;68331;53.362;55.932;2023-08-20T08:29:24;100039.72;;;26.15;34.18
78932;BME280;68331;53.362;55.932;2023-08-20T08:31:50;100049.81;;;26.33;33.66
78932;BME280;68331;53.362;55.932;2023-08-20T08:34:17;100042.66;;;26.51;33.13
78932;BME280;68331;53.362;55.932;2023-08-20T08:36:43;100043.81;;;26.58;32.98
78932;BME280;68331;53.362;55.932;2023-08-20T08:39:11;100043.47;;;26.71;32.39
78932;BME280;68331;53.362;55.932;2023-08-20T08:41:38;100033.91;;;26.77;31.59
78932;BME280;68331;53.362;55.932;2023-08-20T08:44:08;100034.28;;;26.92;30.73
78932;BME280;68331;53.362;55.932;2023-08-20T08:46:37;100028.09;;;26.99;30.81
78932;BME280;68331;53.362;55.932;2023-08-20T08:49:05;100032.88;;;26.87;31.21
78932;BME280;68331;53.362;55.932;2023-08-20T08:51:31;100025.13;;;26.93;31.35
78932;BME280;68331;53.362;55.932;2023-08-20T08:54:00;100031.44;;;26.93;30.88
78932;BME280;68331;53.362;55.932;2023-08-20T08:56:27;100026.94;;;27.02;30.96
78932;BME280;68331;53.362;55.932;2023-08-20T08:58:54;100026.25;;;27.27;30.57
78932;BME280;68331;53.362;55.932;2023-08-20T09:01:20;100025.81;;;27.32;30.59
78932;BME280;68331;53.362;55.932;2023-08-20T09:03:47;100019.38;;;27.33;30.67
78932;BME280;68331;53.362;55.932;2023-08-20T09:06:13;100014.38;;;27.38;30.45
78932;BME280;68331;53.362;55.932;2023-08-20T09:08:39;100015.84;;;27.50;30.01
78932;BME280;68331;53.362;55.932;2023-08-20T09:11:06;100007.56;;;27.52;29.60
78932;BME280;68331;53.362;55.932;2023-08-20T09:13:39;100011.59;;;27.48;30.04
78932;BME280;68331;53.362;55.932;2023-08-20T09:16:10;100003.06;;;27.43;30.20
78932;BME280;68331;53.362;55.932;2023-08-20T09:18:41;100000.50;;;27.59;29.84
78932;BME280;68331;53.362;55.932;2023-08-20T09:21:09;100006.16;;;27.66;29.46
78932;BME280;68331;53.362;55.932;2023-08-20T09:23:36;99997.06;;;27.67;29.09
78932;BME280;68331;53.362;55.932;2023-08-20T09:26:04;99989.47;;;27.70;29.05
78932;BME280;68331;53.362;55.932;2023-08-20T09:28:49;99995.56;;;27.72;29.33
78932;BME280;68331;53.362;55.932;2023-08-20T09:31:16;99996.25;;;27.56;29.61
78932;BME280;68331;53.362;55.932;2023-08-20T09:33:52;99983.94;;;27.62;29.77
78932;BME280;68331;53.362;55.932;2023-08-20T09:36:30;99980.03;;;27.92;29.35
78932;BME280;68331;53.362;55.932;2023-08-20T09:38:57;99978.81;;;27.95;29.24
78932;BME280;68331;53.362;55.932;2023-08-20T09:41:23;99976.34;;;28.01;28.58
78932;BME280;68331;53.362;55.932;2023-08-20T09:43:57;99964.41;;;28.12;28.33
78932;BME280;68331;53.362;55.932;2023-08-20T09:46:26;99968.22;;;28.27;27.97
78932;BME280;68331;53.362;55.932;2023-08-20T09:48:56;99971.25;;;28.24;27.61
78932;BME280;68331;53.362;55.932;2023-08-20T09:51:27;99982.22;;;28.15;27.65
78932;BME280;68331;53.362;55.932;2023-08-20T09:56:36;99963.59;;;28.20;26.43
78932;BME280;68331;53.362;55.932;2023-08-20T09:59:04;99961.88;;;28.19;27.11
78932;BME280;68331;53.362;55.932;2023-08-20T10:01:30;99963.22;;;28.15;27.74
78932;BME280;68331;53.362;55.932;2023-08-20T10:03:57;99960.84;;;27.94;28.20
78932;BME280;68331;53.362;55.932;2023-08-20T10:06:23;99953.25;;;27.97;28.21
78932;BME280;68331;53.362;55.932;2023-08-20T10:08:51;99957.41;;;28.10;28.20
78932;BME280;68331;53.362;55.932;2023-08-20T10:11:17;99951.19;;;28.17;27.81
78932;BME280;68331;53.362;55.932;2023-08-20T10:13:44;99950.28;;;28.09;27.65
78932;BME280;68331;53.362;55.932;2023-08-20T10:16:12;99938.16;;;27.95;27.14
78932;BME280;68331;53.362;55.932;2023-08-20T10:18:39;99940.59;;;28.06;27.64
78932;BME280;68331;53.362;55.932;2023-08-20T10:21:06;99943.53;;;28.13;27.14
78932;BME280;68331;53.362;55.932;2023-08-20T10:23:40;99945.81;;;28.25;26.67
78932;BME280;68331;53.362;55.932;2023-08-20T10:26:08;99952.63;;;28.29;26.19
78932;BME280;68331;53.362;55.932;2023-08-20T10:28:35;99951.97;;;28.36;26.14
78932;BME280;68331;53.362;55.932;2023-08-20T10:31:11;99943.84;;;28.36;25.40
78932;BME280;68331;53.362;55.932;2023-08-20T10:36:20;99939.16;;;28.20;25.82
78932;BME280;68331;53.362;55.932;2023-08-20T10:38:55;99935.28;;;27.96;25.69
78932;BME280;68331;53.362;55.932;2023-08-20T10:41:26;99940.53;;;27.98;25.39
78932;BME280;68331;53.362;55.932;2023-08-20T10:43:57;99939.56;;;27.99;25.87
78932;BME280;68331;53.362;55.932;2023-08-20T10:46:24;99927.56;;;28.10;26.73
78932;BME280;68331;53.362;55.932;2023-08-20T10:48:53;99927.34;;;28.29;26.44
78932;BME280;68331;53.362;55.932;2023-08-20T10:51:33;99927.41;;;28.37;27.03
78932;BME280;68331;53.362;55.932;2023-08-20T10:59:08;99916.00;;;28.60;25.94
78932;BME280;68331;53.362;55.932;2023-08-20T11:01:34;99919.19;;;28.55;26.00
78932;BME280;68331;53.362;55.932;2023-08-20T11:04:01;99923.75;;;28.46;25.68
78932;BME280;68331;53.362;55.932;2023-08-20T11:06:31;99910.66;;;28.42;25.55
78932;BME280;68331;53.362;55.932;2023-08-20T11:08:58;99896.13;;;28.51;25.68
78932;BME280;68331;53.362;55.932;2023-08-20T11:11:25;99904.44;;;28.58;24.59
78932;BME280;68331;53.362;55.932;2023-08-20T11:13:51;99903.94;;;28.54;24.43
78932;BME280;68331;53.362;55.932;2023-08-20T11:16:17;99901.16;;;28.46;23.99
78932;BME280;68331;53.362;55.932;2023-08-20T11:18:43;99893.31;;;28.35;24.17
78932;BME280;68331;53.362;55.932;2023-08-20T11:21:09;99894.47;;;28.32;24.13
78932;BME280;68331;53.362;55.932;2023-08-20T11:23:35;99901.91;;;28.30;24.44
78932;BME280;68331;53.362;55.932;2023-08-20T11:26:03;99889.38;;;28.29;25.04
78932;BME280;68331;53.362;55.932;2023-08-20T11:28:29;99900.66;;;28.42;25.01
78932;BME280;68331;53.362;55.932;2023-08-20T11:30:55;99902.25;;;28.53;25.25
78932;BME280;68331;53.362;55.932;2023-08-20T11:33:22;99896.03;;;28.69;24.99
78932;BME280;68331;53.362;55.932;2023-08-20T11:35:49;99882.72;;;28.49;24.44
78932;BME280;68331;53.362;55.932;2023-08-20T11:38:16;99884.13;;;28.36;25.09
78932;BME280;68331;53.362;55.932;2023-08-20T11:40:42;99881.81;;;28.41;25.42
78932;BME280;68331;53.362;55.932;2023-08-20T11:43:08;99883.25;;;28.53;25.52
78932;BME280;68331;53.362;55.932;2023-08-20T11:45:44;99881.38;;;28.54;25.27
78932;BME280;68331;53.362;55.932;2023-08-20T11:48:10;99879.88;;;28.59;25.54
78932;BME280;68331;53.362;55.932;2023-08-20T11:50:36;99881.72;;;28.59;25.62
78932;BME280;68331;53.362;55.932;2023-08-20T11:53:03;99861.97;;;28.40;25.71
78932;BME280;68331;53.362;55.932;2023-08-20T11:55:29;99864.25;;;28.27;25.34
78932;BME280;68331;53.362;55.932;2023-08-20T11:57:55;99868.88;;;28.35;25.21
78932;BME280;68331;53.362;55.932;2023-08-20T12:00:26;99867.22;;;28.42;25.51
78932;BME280;68331;53.362;55.932;2023-08-20T12:02:53;99856.22;;;28.43;25.14
78932;BME280;68331;53.362;55.932;2023-08-20T12:05:32;99862.38;;;28.54;24.65
78932;BME280;68331;53.362;55.932;2023-08-20T12:07:59;99850.63;;;28.45;24.46
78932;BME280;68331;53.362;55.932;2023-08-20T12:10:28;99850.09;;;28.41;23.92
78932;BME280;68331;53.362;55.932;2023-08-20T12:12:55;99855.13;;;28.36;24.73
78932;BME280;68331;53.362;55.932;2023-08-20T12:15:22;99848.41;;;28.40;24.56
78932;BME280;68331;53.362;55.932;2023-08-20T12:17:58;99848.19;;;28.34;24.66
78932;BME280;68331;53.362;55.932;2023-08-20T12:20:27;99843.03;;;28.22;24.89
78932;BME280;68331;53.362;55.932;2023-08-20T12:22:53;99844.59;;;28.25;24.68
78932;BME280;68331;53.362;55.932;2023-08-20T12:25:19;99839.28;;;28.15;25.12
78932;BME280;68331;53.362;55.932;2023-08-20T12:27:46;99848.25;;;28.16;24.27
78932;BME280;68331;53.362;55.932;2023-08-20T12:30:12;99837.34;;;28.08;24.28
78932;BME280;68331;53.362;55.932;2023-08-20T12:32:38;99839.94;;;28.09;24.33
78932;BME280;68331;53.362;55.932;2023-08-20T12:35:05;99833.28;;;28.03;24.34
78932;BME280;68331;53.362;55.932;2023-08-20T12:37:31;99829.78;;;27.85;24.36
78932;BME280;68331;53.362;55.932;2023-08-20T12:39:57;99831.72;;;27.75;24.62
78932;BME280;68331;53.362;55.932;2023-08-20T12:42:23;99822.84;;;27.65;24.37
78932;BME280;68331;53.362;55.932;2023-08-20T12:44:50;99825.19;;;27.59;24.36
78932;BME280;68331;53.362;55.932;2023-08-20T12:47:16;99823.34;;;27.60;24.43
78932;BME280;68331;53.362;55.932;2023-08-20T12:49:42;99811.28;;;27.54;24.19
78932;BME280;68331;53.362;55.932;2023-08-20T12:52:08;99821.91;;;27.48;24.09
78932;BME280;68331;53.362;55.932;2023-08-20T12:54:35;99822.03;;;27.46;24.09
78932;BME280;68331;53.362;55.932;2023-08-20T12:57:01;99828.31;;;27.47;24.41
78932;BME280;68331;53.362;55.932;2023-08-20T12:59:27;99823.53;;;27.41;24.34